Time;durP1;ratioP1;P1;durP2;ratioP2;P2;SDS_P1;SDS_P2;PMS_P1;PMS_P2;Temp;Humidity;BMP_temperature;BMP_pressure;BME280_temperature;BME280_humidity;BME280_pressure;Samples;Min_cycle;Max_cycle;Signal;HPM_P1;HPM_P2
2023/06/16 00:02:23;;;;;;;6.00;3.58;;;;;;;20.04;48.70;98805.13;4360995;32;34314;-82
2023/06/16 00:04:52;;;;;;;8.25;4.18;;;;;;;20.22;49.07;98811.59;4359586;32;34205;-83
2023/06/16 00:07:19;;;;;;;7.70;4.00;;;;;;;20.10;49.29;98807.59;4360567;32;34721;-82
2023/06/16 00:09:47;;;;;;;6.57;3.78;;;;;;;20.15;49.08;98803.03;4359696;32;34066;-84
2023/06/16 00:12:15;;;;;;;6.28;3.87;;;;;;;20.20;48.99;98800.28;4360396;32;35103;-84
2023/06/16 00:14:42;;;;;;;6.03;3.60;;;;;;;20.17;49.30;98806.47;4360080;32;34908;-87
2023/06/16 00:17:10;;;;;;;6.40;3.92;;;;;;;20.24;49.05;98805.37;4360257;32;33333;-82
2023/06/16 00:19:39;;;;;;;6.22;4.12;;;;;;;20.33;49.17;98802.44;4359636;32;34005;-87
2023/06/16 00:22:07;;;;;;;5.95;3.72;;;;;;;20.30;49.14;98807.78;4360608;32;33572;-82
2023/06/16 00:24:35;;;;;;;6.68;3.83;;;;;;;20.21;49.55;98802.84;4360424;32;34726;-82
2023/06/16 00:27:03;;;;;;;7.00;4.25;;;;;;;20.28;49.76;98795.63;4360174;32;33683;-81
2023/06/16 00:29:30;;;;;;;6.18;3.72;;;;;;;20.40;49.19;98793.44;4360440;32;34057;-85
2023/06/16 00:31:58;;;;;;;7.80;3.28;;;;;;;20.25;49.41;98798.34;4360156;32;33947;-85
2023/06/16 00:34:25;;;;;;;6.37;3.60;;;;;;;20.25;49.41;98793.06;4360938;32;34105;-86
2023/06/16 00:36:53;;;;;;;6.03;3.92;;;;;;;20.38;49.04;98794.38;4359610;32;34396;-84
2023/06/16 00:39:20;;;;;;;7.07;4.37;;;;;;;20.24;49.62;98792.22;4360610;32;35378;-85
2023/06/16 00:41:48;;;;;;;7.12;4.10;;;;;;;20.31;49.69;98785.84;4360080;32;34166;-84
2023/06/16 00:44:15;;;;;;;6.32;3.80;;;;;;;20.21;50.11;98787.03;4347181;32;33776;-84
2023/06/16 00:46:43;;;;;;;8.60;4.37;;;;;;;20.05;50.76;98777.94;4360421;32;33266;-84
2023/06/16 00:49:11;;;;;;;9.32;4.60;;;;;;;20.08;50.97;98785.75;4359403;32;34025;-82
2023/06/16 00:51:39;;;;;;;7.60;4.12;;;;;;;19.87;51.83;98782.84;4360844;32;35451;-83
2023/06/16 00:54:07;;;;;;;7.47;4.53;;;;;;;19.88;50.52;98784.56;4361204;32;34006;-82
2023/06/16 00:56:37;;;;;;;6.60;4.15;;;;;;;19.85;51.72;98778.53;4360275;32;33736;-83
2023/06/16 00:59:05;;;;;;;5.97;3.58;;;;;;;19.99;51.45;98776.34;4359448;32;33623;-83
2023/06/16 01:01:34;;;;;;;8.50;3.60;;;;;;;20.12;51.68;98782.09;4357897;32;34927;-85
2023/06/16 01:04:02;;;;;;;8.85;4.22;;;;;;;20.11;51.31;98785.62;4360231;32;34184;-81
2023/06/16 01:06:36;;;;;;;6.75;3.97;;;;;;;20.05;51.63;98777.94;4333947;32;32970;-82
2023/06/16 01:09:12;;;;;;;6.70;3.90;;;;;;;20.15;51.22;98781.97;4357928;32;33640;-83
2023/06/16 01:12:12;;;;;;;6.95;3.87;;;;;;;20.05;51.61;98780.56;4358670;32;34815;-83
2023/06/16 01:14:53;;;;;;;6.57;4.12;;;;;;;20.04;51.44;98778.81;4350573;32;34945;-83
2023/06/16 01:17:22;;;;;;;7.50;4.47;;;;;;;19.93;52.23;98773.94;4346687;32;34255;-83
2023/06/16 01:20:14;;;;;;;7.10;4.28;;;;;;;20.01;52.02;98774.53;4347271;32;33556;-82
2023/06/16 01:23:03;;;;;;;8.25;4.20;;;;;;;20.07;51.98;98770.84;4360734;32;34028;-83
2023/06/16 01:25:32;;;;;;;6.07;3.70;;;;;;;19.93;52.38;98766.87;4360080;32;35010;-85
2023/06/16 01:28:03;;;;;;;6.60;4.53;;;;;;;19.78;51.84;98764.75;4343211;32;33764;-82
2023/06/16 01:30:34;;;;;;;7.32;4.18;;;;;;;19.92;51.95;98762.50;4347932;32;33468;-83
2023/06/16 01:33:03;;;;;;;7.35;4.25;;;;;;;20.10;52.29;98771.59;4334943;32;34424;-84
2023/06/16 01:35:33;;;;;;;8.20;4.53;;;;;;;20.02;52.80;98764.88;4346878;32;34936;-83
2023/06/16 01:38:01;;;;;;;7.57;4.12;;;;;;;20.03;52.60;98761.31;4339805;33;33550;-82
2023/06/16 01:40:29;;;;;;;9.57;3.85;;;;;;;20.15;52.24;98756.53;4353086;32;33944;-82
2023/06/16 01:42:57;;;;;;;7.50;3.90;;;;;;;20.26;51.90;98761.44;4334704;32;33628;-83
2023/06/16 01:45:25;;;;;;;7.05;4.03;;;;;;;20.09;52.11;98758.50;4347312;32;34655;-83
2023/06/16 01:47:53;;;;;;;6.28;4.12;;;;;;;20.09;51.89;98754.09;4358966;32;33744;-85
2023/06/16 01:50:21;;;;;;;5.90;4.07;;;;;;;20.16;51.52;98757.41;4359783;32;33954;-82
2023/06/16 01:52:49;;;;;;;6.87;3.78;;;;;;;20.18;51.48;98756.41;4345952;32;33918;-84
2023/06/16 01:55:18;;;;;;;8.13;4.22;;;;;;;20.29;51.16;98752.56;4359489;32;34768;-82
2023/06/16 01:57:47;;;;;;;7.00;3.85;;;;;;;20.23;51.26;98752.78;4357993;32;33459;-84
2023/06/16 02:00:29;;;;;;;7.68;5.10;;;;;;;20.20;51.42;98753.75;4342686;32;33577;-85
2023/06/16 02:03:09;;;;;;;7.03;3.92;;;;;;;20.10;52.01;98753.19;4335565;32;34192;-84
2023/06/16 02:05:41;;;;;;;6.55;4.03;;;;;;;20.22;51.89;98751.91;4354509;32;34237;-83
2023/06/16 02:08:09;;;;;;;6.65;4.03;;;;;;;20.21;51.96;98749.34;4345673;32;32168;-83
2023/06/16 02:10:37;;;;;;;6.70;4.40;;;;;;;20.26;52.17;98748.25;4346024;32;33937;-82
2023/06/16 02:13:05;;;;;;;6.05;4.03;;;;;;;20.02;52.35;98756.97;4360195;32;34234;-83
2023/06/16 02:15:33;;;;;;;6.78;3.87;;;;;;;20.13;52.28;98749.59;4358904;32;33617;-83
2023/06/16 02:18:02;;;;;;;10.20;4.80;;;;;;;19.78;53.46;98745.47;4359543;32;33679;-83
2023/06/16 02:20:30;;;;;;;7.22;3.87;;;;;;;20.11;52.89;98746.13;4359642;32;32329;-82
2023/06/16 02:22:58;;;;;;;6.40;4.22;;;;;;;20.13;53.06;98752.22;4359982;32;35094;-83
2023/06/16 02:25:26;;;;;;;8.38;4.53;;;;;;;20.29;52.31;98742.91;4358852;32;34233;-85
2023/06/16 02:27:53;;;;;;;7.10;4.20;;;;;;;20.17;52.67;98748.59;4357752;32;33813;-86
2023/06/16 02:30:21;;;;;;;7.20;4.22;;;;;;;20.24;52.42;98749.25;4358464;32;33697;-83
2023/06/16 02:32:49;;;;;;;7.55;4.05;;;;;;;20.23;52.59;98743.13;4356714;32;34853;-86
2023/06/16 02:35:29;;;;;;;7.68;4.30;;;;;;;19.77;53.52;98757.72;4359091;32;34450;-82
2023/06/16 02:37:56;;;;;;;7.35;4.37;;;;;;;20.14;51.09;98753.94;4359684;32;33435;-82
2023/06/16 02:40:24;;;;;;;8.20;5.03;;;;;;;19.43;53.22;98750.87;4359267;32;34035;-83
2023/06/16 02:42:52;;;;;;;9.98;4.55;;;;;;;19.70;52.86;98748.34;4360085;32;34334;-83
2023/06/16 02:45:20;;;;;;;8.35;5.22;;;;;;;19.78;52.92;98745.47;4359588;32;34468;-82
2023/06/16 02:47:47;;;;;;;7.12;4.43;;;;;;;19.57;54.00;98736.44;4359576;32;33499;-81
2023/06/16 02:50:15;;;;;;;9.35;5.10;;;;;;;19.45;54.11;98749.03;4357846;32;34029;-81
2023/06/16 02:52:44;;;;;;;10.38;4.90;;;;;;;19.45;54.50;98743.78;4345279;32;33729;-82
2023/06/16 02:55:13;;;;;;;7.95;5.22;;;;;;;19.47;54.74;98740.22;4360060;32;33886;-82
2023/06/16 02:57:41;;;;;;;8.38;4.65;;;;;;;19.59;54.57;98739.88;4360048;32;34454;-81
2023/06/16 03:00:11;;;;;;;9.00;5.05;;;;;;;19.58;54.78;98740.75;4357013;32;34579;-81
2023/06/16 03:02:42;;;;;;;9.20;5.45;;;;;;;19.51;54.70;98731.34;4353979;32;32431;-86
2023/06/16 03:05:09;;;;;;;9.27;5.07;;;;;;;19.67;54.39;98740.53;4345427;32;34188;-81
2023/06/16 03:07:38;;;;;;;8.15;5.10;;;;;;;19.77;54.39;98746.34;4358624;32;33799;-84
2023/06/16 03:10:07;;;;;;;10.48;5.78;;;;;;;19.55;54.39;98743.50;4358600;32;33817;-82
2023/06/16 03:12:36;;;;;;;8.77;5.55;;;;;;;18.98;55.71;98752.16;4346346;32;32668;-82
2023/06/16 03:15:05;;;;;;;9.88;5.97;;;;;;;19.02;55.77;98748.56;4358629;32;34226;-83
2023/06/16 03:17:33;;;;;;;11.20;6.50;;;;;;;19.05;55.47;98748.47;4355497;32;33186;-82
2023/06/16 03:20:01;;;;;;;10.23;5.15;;;;;;;19.17;55.26;98742.87;4338527;32;33132;-82
2023/06/16 03:22:31;;;;;;;8.27;5.47;;;;;;;19.25;54.77;98746.16;4355195;32;34869;-86
2023/06/16 03:25:02;;;;;;;9.70;5.97;;;;;;;19.39;54.75;98741.31;4346205;32;34835;-81
2023/06/16 03:27:31;;;;;;;8.95;5.68;;;;;;;19.16;56.11;98751.66;4359250;32;34482;-83
2023/06/16 03:29:58;;;;;;;8.73;4.87;;;;;;;19.41;54.90;98750.03;4358239;32;34364;-83
2023/06/16 03:32:27;;;;;;;7.93;5.05;;;;;;;19.45;54.11;98750.81;4359622;32;34994;-83
2023/06/16 03:34:55;;;;;;;7.80;4.80;;;;;;;19.45;54.06;98748.19;4359379;32;34357;-83
2023/06/16 03:37:23;;;;;;;8.77;5.15;;;;;;;19.72;54.05;98743.87;4359426;32;33251;-84
2023/06/16 03:39:51;;;;;;;9.00;5.10;;;;;;;19.42;53.81;98751.75;4344424;32;34714;-84
2023/06/16 03:42:18;;;;;;;7.45;4.97;;;;;;;19.52;54.70;98739.19;4358439;32;34050;-82
2023/06/16 03:44:46;;;;;;;8.90;5.90;;;;;;;19.53;55.09;98754.06;4359461;32;34364;-83
2023/06/16 03:47:13;;;;;;;8.93;4.82;;;;;;;19.57;54.30;98745.16;4358659;32;34569;-82
2023/06/16 03:49:41;;;;;;;9.57;4.80;;;;;;;19.76;54.82;98747.28;4357457;32;34063;-84
2023/06/16 03:52:09;;;;;;;9.77;4.87;;;;;;;19.55;55.34;98748.78;4347980;32;34149;-84
2023/06/16 03:54:36;;;;;;;8.77;5.97;;;;;;;19.55;55.25;98748.78;4359422;32;34821;-84
2023/06/16 03:57:05;;;;;;;8.05;5.10;;;;;;;19.57;55.04;98750.44;4358906;32;33805;-83
2023/06/16 03:59:33;;;;;;;8.60;4.55;;;;;;;19.82;54.64;98744.47;4358387;32;33875;-82
2023/06/16 04:02:07;;;;;;;8.18;5.87;;;;;;;19.88;54.84;98746.88;4358146;32;35084;-82
2023/06/16 04:04:36;;;;;;;8.35;4.60;;;;;;;19.95;54.64;98750.19;4359547;32;33666;-84
2023/06/16 04:07:05;;;;;;;8.00;4.53;;;;;;;20.03;54.31;98745.53;4361065;32;33650;-83
2023/06/16 04:09:32;;;;;;;8.60;4.95;;;;;;;20.07;54.33;98742.75;4360615;32;33995;-81
2023/06/16 04:12:00;;;;;;;8.82;5.05;;;;;;;19.87;54.88;98745.16;4360115;32;33633;-83
2023/06/16 04:14:28;;;;;;;7.80;5.20;;;;;;;19.86;55.18;98746.94;4361376;32;33860;-84
2023/06/16 04:16:56;;;;;;;7.45;4.90;;;;;;;19.96;54.86;98744.00;4360941;32;34651;-82
2023/06/16 04:19:26;;;;;;;8.20;5.10;;;;;;;19.92;55.03;98753.75;4360061;32;34866;-82
2023/06/16 04:21:53;;;;;;;8.80;5.28;;;;;;;20.00;54.92;98748.25;4358698;32;34146;-83
2023/06/16 04:24:21;;;;;;;7.40;4.53;;;;;;;20.03;55.03;98758.69;4325205;33;34205;-82
2023/06/16 04:26:52;;;;;;;9.68;5.50;;;;;;;19.80;55.36;98749.75;4353174;32;33472;-83
2023/06/16 04:29:20;;;;;;;7.70;5.05;;;;;;;19.91;55.20;98747.66;4360401;32;34684;-82
2023/06/16 04:31:48;;;;;;;8.02;4.82;;;;;;;20.09;55.97;98759.34;4346955;32;35010;-83
2023/06/16 04:34:16;;;;;;;7.72;4.70;;;;;;;20.20;55.37;98752.91;4361113;32;34060;-83
2023/06/16 04:36:44;;;;;;;7.37;4.90;;;;;;;20.21;56.04;98755.47;4360864;32;33897;-83
2023/06/16 04:39:14;;;;;;;7.80;5.12;;;;;;;20.03;51.66;98756.06;4359541;32;34665;-82
2023/06/16 04:41:42;;;;;;;10.55;4.70;;;;;;;20.22;52.60;98746.66;4360768;32;34886;-84
2023/06/16 04:44:11;;;;;;;8.05;4.50;;;;;;;20.73;51.24;98748.47;4360925;32;34754;-84
2023/06/16 04:46:39;;;;;;;7.68;4.87;;;;;;;20.80;51.77;98749.97;4360082;32;33431;-81
2023/06/16 04:49:07;;;;;;;8.43;4.85;;;;;;;20.97;51.43;98733.53;4347317;32;34422;-83
2023/06/16 04:51:34;;;;;;;7.18;4.30;;;;;;;20.93;52.64;98734.56;4357526;32;34667;-84
2023/06/16 04:54:02;;;;;;;7.07;4.78;;;;;;;21.01;52.34;98740.41;4360191;32;35224;-84
2023/06/16 04:56:30;;;;;;;9.40;4.82;;;;;;;21.04;54.15;98742.94;4360532;32;33607;-82
2023/06/16 04:58:57;;;;;;;7.15;4.70;;;;;;;21.13;53.44;98744.37;4346188;32;33472;-82
2023/06/16 05:01:26;;;;;;;8.70;4.93;;;;;;;20.95;52.72;98739.78;4357671;32;33853;-85
2023/06/16 05:03:55;;;;;;;9.82;4.85;;;;;;;20.87;51.84;98746.22;4356392;32;35050;-86
2023/06/16 05:06:23;;;;;;;7.45;4.50;;;;;;;20.79;51.35;98747.38;4359545;32;33786;-84
2023/06/16 05:08:53;;;;;;;9.02;5.32;;;;;;;20.78;51.75;98748.28;4359228;32;33874;-85
2023/06/16 05:11:21;;;;;;;9.43;4.40;;;;;;;20.46;51.68;98754.66;4359857;32;33916;-84
2023/06/16 05:13:48;;;;;;;10.00;5.20;;;;;;;20.56;52.81;98750.81;4359867;32;33986;-82
2023/06/16 05:16:16;;;;;;;8.02;5.40;;;;;;;20.62;52.44;98747.97;4356875;32;33386;-87
2023/06/16 05:18:44;;;;;;;7.60;5.20;;;;;;;20.51;53.22;98753.59;4359021;32;33973;-81
2023/06/16 05:21:13;;;;;;;8.85;5.12;;;;;;;20.24;53.34;98750.09;4359915;32;35033;-82
2023/06/16 05:23:40;;;;;;;8.02;4.85;;;;;;;20.18;53.81;98752.94;4359867;32;34023;-83
2023/06/16 05:26:09;;;;;;;8.85;5.62;;;;;;;20.21;53.68;98754.59;4346481;32;33585;-83
2023/06/16 05:28:36;;;;;;;12.37;5.20;;;;;;;20.31;53.73;98756.88;4357711;32;33909;-83
2023/06/16 05:31:04;;;;;;;8.75;5.60;;;;;;;20.11;54.30;98759.28;4359460;32;33603;-85
2023/06/16 05:33:32;;;;;;;9.32;5.57;;;;;;;20.07;54.93;98752.41;4357261;32;34285;-83
2023/06/16 05:35:59;;;;;;;9.13;5.25;;;;;;;20.33;55.52;98749.78;4342502;32;32911;-84
2023/06/16 05:38:27;;;;;;;8.98;5.90;;;;;;;20.38;54.82;98757.53;4360313;32;33699;-84
2023/06/16 05:40:55;;;;;;;8.45;5.50;;;;;;;20.33;54.60;98762.09;4360494;32;34298;-83
2023/06/16 05:43:23;;;;;;;8.70;5.80;;;;;;;20.64;55.14;98761.94;4355769;32;34144;-84
2023/06/16 05:45:50;;;;;;;9.57;6.35;;;;;;;20.37;55.55;98767.19;4358677;32;34345;-85
2023/06/16 05:48:18;;;;;;;12.88;6.72;;;;;;;20.56;55.00;98761.34;4360206;32;33951;-85
2023/06/16 05:50:47;;;;;;;10.90;6.82;;;;;;;20.37;55.40;98767.19;4348853;32;33838;-84
2023/06/16 05:53:15;;;;;;;11.05;7.20;;;;;;;19.96;56.65;98763.28;4359451;32;34711;-84
2023/06/16 05:55:43;;;;;;;10.32;7.18;;;;;;;19.71;56.66;98763.19;4360355;32;33489;-85
2023/06/16 05:58:10;;;;;;;10.88;7.30;;;;;;;19.72;57.09;98767.53;4347005;32;34025;-84
2023/06/16 06:00:38;;;;;;;7.93;5.90;;;;;;;20.17;55.47;98767.00;4359756;32;34153;-87
2023/06/16 06:03:06;;;;;;;10.35;6.95;;;;;;;19.76;56.99;98763.06;4359790;32;34928;-87
2023/06/16 06:05:34;;;;;;;11.30;6.68;;;;;;;20.03;55.89;98772.69;4360361;32;34419;-84
2023/06/16 06:08:02;;;;;;;11.20;7.57;;;;;;;19.84;57.35;98768.94;4360144;32;34133;-84
2023/06/16 06:10:30;;;;;;;13.23;7.75;;;;;;;19.82;57.10;98771.63;4360038;32;35558;-84
2023/06/16 06:13:03;;;;;;;11.43;7.47;;;;;;;19.83;56.38;98775.09;4360506;32;34109;-84
2023/06/16 06:15:31;;;;;;;10.68;7.50;;;;;;;19.79;57.32;98768.22;4346734;32;33747;-85
2023/06/16 06:17:59;;;;;;;10.23;7.15;;;;;;;19.97;56.99;98769.44;4345857;32;34642;-84
2023/06/16 06:20:28;;;;;;;11.73;7.03;;;;;;;19.63;57.90;98767.84;4354826;32;174945;-85
2023/06/16 06:22:57;;;;;;;10.73;6.80;;;;;;;19.93;57.52;98772.16;4360338;32;35096;-85
2023/06/16 06:25:24;;;;;;;10.43;6.45;;;;;;;19.94;57.01;98778.28;4345830;32;32934;-84
2023/06/16 06:27:52;;;;;;;10.82;6.90;;;;;;;20.30;56.63;98784.09;4358125;32;33608;-85
2023/06/16 06:30:20;;;;;;;11.70;7.12;;;;;;;20.18;56.18;98781.87;4359854;32;34174;-83
2023/06/16 06:32:47;;;;;;;11.65;7.10;;;;;;;19.98;56.92;98773.78;4359850;32;36720;-83
2023/06/16 06:35:15;;;;;;;12.65;6.43;;;;;;;19.92;56.65;98772.19;4360201;32;34468;-84
2023/06/16 06:37:43;;;;;;;10.40;6.95;;;;;;;20.27;55.79;98778.97;4346167;32;33698;-83
2023/06/16 06:40:11;;;;;;;10.18;6.97;;;;;;;20.08;56.33;98783.97;4348018;32;33940;-84
2023/06/16 06:42:39;;;;;;;10.88;6.68;;;;;;;20.28;56.01;98791.22;4360098;32;34775;-84
2023/06/16 06:45:17;;;;;;;9.93;6.28;;;;;;;20.38;56.16;98790.00;4359227;32;33730;-84
2023/06/16 06:47:45;;;;;;;10.13;6.90;;;;;;;20.55;55.31;98794.72;4359837;32;33750;-86
2023/06/16 06:50:13;;;;;;;9.75;6.43;;;;;;;20.85;54.77;98795.44;4359635;32;34022;-84
2023/06/16 06:52:40;;;;;;;10.25;6.65;;;;;;;20.30;55.79;98797.25;4346465;32;35013;-83
2023/06/16 06:55:09;;;;;;;11.23;7.25;;;;;;;20.31;55.71;98801.66;4359799;32;34057;-85
2023/06/16 06:57:38;;;;;;;12.15;7.10;;;;;;;20.05;56.21;98798.97;4359351;32;34315;-85
2023/06/16 07:00:07;;;;;;;10.75;6.95;;;;;;;20.15;56.74;98797.75;4358586;32;34774;-85
2023/06/16 07:02:35;;;;;;;15.07;6.95;;;;;;;19.88;56.63;98795.09;4359677;32;34183;-85
2023/06/16 07:05:03;;;;;;;9.55;7.25;;;;;;;20.06;56.59;98796.28;4359511;32;33414;-82
2023/06/16 07:07:31;;;;;;;13.75;6.97;;;;;;;20.17;55.94;98795.97;4345616;32;34776;-84
2023/06/16 07:09:58;;;;;;;10.38;7.25;;;;;;;20.55;54.98;98793.88;4359173;32;35123;-86
2023/06/16 07:12:26;;;;;;;12.27;7.35;;;;;;;20.84;54.54;98799.00;4346354;32;34234;-84
2023/06/16 07:14:53;;;;;;;11.32;7.12;;;;;;;20.30;57.12;98791.16;4346058;32;33545;-83
2023/06/16 07:17:21;;;;;;;10.25;7.47;;;;;;;20.57;55.71;98799.94;4359866;32;34538;-83
2023/06/16 07:19:51;;;;;;;11.98;7.12;;;;;;;20.45;56.80;98800.31;4346578;32;33944;-85
2023/06/16 07:22:20;;;;;;;10.63;6.82;;;;;;;20.97;54.89;98801.22;4359375;32;35039;-84
2023/06/16 07:24:47;;;;;;;9.43;7.15;;;;;;;21.18;53.91;98803.09;4359727;32;33900;-84
2023/06/16 07:27:15;;;;;;;15.15;7.80;;;;;;;21.11;54.79;98804.22;4357463;32;34040;-87
2023/06/16 07:29:42;;;;;;;13.15;7.22;;;;;;;20.93;55.18;98807.50;4358949;32;34423;-85
2023/06/16 07:32:10;;;;;;;12.82;8.18;;;;;;;20.64;56.70;98802.31;4346133;32;33863;-85
2023/06/16 07:34:39;;;;;;;13.10;7.30;;;;;;;20.92;56.43;98813.69;4346137;32;33262;-85
2023/06/16 07:37:06;;;;;;;10.57;7.18;;;;;;;20.87;56.05;98814.72;4359550;32;33828;-85
2023/06/16 07:39:34;;;;;;;9.32;7.30;;;;;;;20.96;56.86;98813.53;4360511;32;33904;-86
2023/06/16 07:42:01;;;;;;;11.10;7.30;;;;;;;21.05;55.99;98810.56;4335753;32;34000;-87
2023/06/16 07:44:29;;;;;;;11.80;7.20;;;;;;;20.83;56.25;98812.22;4361257;32;34440;-87
2023/06/16 07:46:56;;;;;;;11.43;7.97;;;;;;;21.21;54.83;98810.00;4347448;32;34811;-85
2023/06/16 07:49:24;;;;;;;13.13;7.93;;;;;;;20.90;56.53;98809.31;4361099;32;34220;-85
2023/06/16 07:51:51;;;;;;;15.13;7.62;;;;;;;21.69;54.10;98803.87;4361395;32;34236;-85
2023/06/16 07:54:19;;;;;;;11.38;7.97;;;;;;;21.77;53.92;98810.56;4361306;32;33781;-85
2023/06/16 07:56:48;;;;;;;10.43;6.65;;;;;;;22.22;53.48;98804.44;4361252;32;34548;-86
2023/06/16 07:59:16;;;;;;;12.68;6.93;;;;;;;22.33;51.65;98799.56;4361191;32;35039;-85
2023/06/16 08:01:44;;;;;;;11.75;6.72;;;;;;;22.11;52.25;98811.87;4361009;32;34336;-84
2023/06/16 08:04:12;;;;;;;11.43;6.78;;;;;;;22.28;52.58;98801.56;4361183;32;33320;-85
2023/06/16 08:06:40;;;;;;;11.35;7.10;;;;;;;22.47;51.94;98803.44;4360428;32;33923;-85
2023/06/16 08:09:10;;;;;;;9.88;6.43;;;;;;;22.54;51.33;98797.84;4347676;32;34121;-85
2023/06/16 08:11:39;;;;;;;10.00;6.40;;;;;;;22.96;50.66;98801.41;4347990;32;33308;-85
2023/06/16 08:14:07;;;;;;;11.30;6.47;;;;;;;23.35;49.60;98793.47;4361630;32;33230;-86
2023/06/16 08:16:35;;;;;;;11.30;6.60;;;;;;;23.87;48.80;98792.88;4352953;32;33779;-87
2023/06/16 08:19:03;;;;;;;10.48;6.50;;;;;;;23.62;48.29;98790.50;4360001;32;32724;-87
2023/06/16 08:21:30;;;;;;;10.80;5.28;;;;;;;23.63;47.10;98792.19;4347293;32;32992;-85
2023/06/16 08:23:58;;;;;;;10.30;5.65;;;;;;;23.55;46.97;98788.13;4360736;32;33410;-84
2023/06/16 08:26:26;;;;;;;9.10;5.45;;;;;;;23.72;47.15;98797.97;4347172;32;34101;-85
2023/06/16 08:28:53;;;;;;;10.18;5.20;;;;;;;23.89;46.93;98781.28;4335089;32;33525;-86
2023/06/16 08:31:21;;;;;;;12.37;5.32;;;;;;;23.74;46.70;98793.44;4347188;32;34174;-85
2023/06/16 08:33:50;;;;;;;8.82;5.05;;;;;;;23.78;45.26;98787.06;4347272;32;32629;-86
2023/06/16 08:36:20;;;;;;;8.45;5.25;;;;;;;24.34;43.85;98795.03;4347726;32;33821;-87
2023/06/16 08:38:48;;;;;;;10.68;5.35;;;;;;;24.42;45.61;98792.88;4347526;32;33312;-85
2023/06/16 08:41:16;;;;;;;10.38;5.55;;;;;;;24.73;43.78;98795.69;4360887;32;34421;-85
2023/06/16 08:43:48;;;;;;;8.85;5.10;;;;;;;24.97;44.20;98798.03;4347481;32;33705;-86
2023/06/16 09:05:39;;;;;;;10.73;5.60;;;;;;;24.14;47.23;98783.63;4895658;27;20110;-87
2023/06/16 09:08:08;;;;;;;13.48;5.75;;;;;;;24.36;46.87;98788.72;4360072;32;33351;-90
2023/06/16 09:10:35;;;;;;;9.88;5.80;;;;;;;24.67;47.01;98793.38;4360510;32;33740;-89
2023/06/16 09:13:03;;;;;;;11.48;5.28;;;;;;;24.68;45.38;98789.78;4347261;32;33849;-86
2023/06/16 09:15:33;;;;;;;8.48;5.70;;;;;;;25.02;46.87;98789.84;4360611;32;34160;-82
2023/06/16 09:18:06;;;;;;;8.10;5.50;;;;;;;24.71;44.03;98783.47;4360752;32;33651;-84
2023/06/16 09:20:39;;;;;;;8.38;5.47;;;;;;;24.79;46.93;98785.72;4347560;32;32966;-85
2023/06/16 09:23:08;;;;;;;8.93;5.22;;;;;;;24.54;45.98;98786.09;4359108;32;34178;-89
2023/06/16 09:25:38;;;;;;;10.38;5.72;;;;;;;24.05;48.42;98786.69;4346647;32;33830;-87
2023/06/16 09:28:08;;;;;;;9.07;5.18;;;;;;;24.14;47.58;98791.56;4359373;32;33717;-84
2023/06/16 09:30:36;;;;;;;9.27;5.55;;;;;;;24.57;46.45;98789.47;4347211;32;33378;-86
2023/06/16 09:33:06;;;;;;;9.63;5.47;;;;;;;24.94;45.37;98798.19;4360839;32;33735;-89
2023/06/16 09:35:34;;;;;;;9.05;5.37;;;;;;;24.71;46.41;98794.94;4360226;32;35110;-88
2023/06/16 09:38:03;;;;;;;8.15;5.95;;;;;;;24.76;46.17;98790.22;4359505;32;34558;-84
2023/06/16 09:40:33;;;;;;;11.18;5.68;;;;;;;25.06;45.94;98788.75;4355728;32;33994;-91
2023/06/16 09:43:03;;;;;;;12.35;5.30;;;;;;;25.37;44.69;98780.03;4347229;32;34769;-84
2023/06/16 09:45:32;;;;;;;8.65;5.35;;;;;;;25.31;45.88;98777.72;4347240;32;34045;-84
2023/06/16 09:48:08;;;;;;;11.15;6.03;;;;;;;25.37;45.52;98772.06;4360705;32;34386;-85
2023/06/16 09:50:37;;;;;;;8.93;5.25;;;;;;;25.61;45.51;98776.06;4360553;32;33751;-87
2023/06/16 09:53:07;;;;;;;9.52;5.22;;;;;;;25.38;44.84;98773.78;4346995;32;34038;-84
2023/06/16 09:55:39;;;;;;;7.57;5.00;;;;;;;25.03;46.02;98779.13;4360918;32;34816;-84
2023/06/16 09:58:08;;;;;;;9.68;5.37;;;;;;;25.51;44.92;98774.84;4334975;32;33582;-89
2023/06/16 10:00:35;;;;;;;8.82;5.12;;;;;;;25.38;45.85;98768.47;4347373;32;34115;-83
2023/06/16 10:03:08;;;;;;;14.18;6.25;;;;;;;25.40;44.05;98762.16;4347035;32;33816;-83
2023/06/16 10:05:37;;;;;;;9.23;5.85;;;;;;;25.80;44.68;98761.78;4346006;32;33827;-88
2023/06/16 10:08:06;;;;;;;8.27;5.70;;;;;;;24.80;46.33;98761.78;4346266;32;34544;-83
2023/06/16 10:10:36;;;;;;;10.27;5.20;;;;;;;25.14;46.09;98758.25;4346312;32;34268;-84
2023/06/16 10:13:07;;;;;;;8.82;5.60;;;;;;;25.11;45.45;98755.75;4346566;32;34021;-84
2023/06/16 10:15:37;;;;;;;9.55;5.62;;;;;;;24.64;46.13;98761.72;4359498;32;34037;-83
2023/06/16 10:18:07;;;;;;;8.63;5.30;;;;;;;25.06;46.06;98760.41;4360131;32;33860;-82
2023/06/16 10:20:40;;;;;;;10.20;5.57;;;;;;;24.89;45.46;98765.72;4360127;32;33553;-82
2023/06/16 10:23:08;;;;;;;9.27;5.25;;;;;;;24.81;45.90;98770.56;4359781;32;34180;-85
2023/06/16 10:25:38;;;;;;;8.70;5.43;;;;;;;24.77;45.54;98772.53;4360218;32;35161;-84
2023/06/16 10:28:10;;;;;;;8.50;5.75;;;;;;;24.87;45.35;98762.31;4346396;32;34938;-83
2023/06/16 10:30:38;;;;;;;8.80;5.50;;;;;;;24.75;45.51;98764.66;4331983;33;34733;-89
2023/06/16 10:33:21;;;;;;;8.93;5.55;;;;;;;25.21;45.48;98751.66;4345626;33;34855;-83
2023/06/16 10:35:55;;;;;;;8.63;5.53;;;;;;;24.99;45.33;98751.06;4335683;33;34213;-84
2023/06/16 10:38:43;;;;;;;8.65;5.45;;;;;;;24.84;44.11;98757.16;4344458;33;33676;-84
2023/06/16 10:41:12;;;;;;;9.38;5.72;;;;;;;24.91;43.22;98758.56;4356433;32;34731;-83
2023/06/16 10:43:40;;;;;;;10.30;5.70;;;;;;;24.48;46.03;98771.38;4360219;32;34026;-84
2023/06/16 10:46:17;;;;;;;10.10;6.07;;;;;;;24.22;46.17;98765.53;4346792;32;33859;-83
2023/06/16 10:49:04;;;;;;;8.95;5.30;;;;;;;24.37;46.33;98757.78;4360267;32;33443;-83
2023/06/16 10:51:44;;;;;;;8.82;4.90;;;;;;;24.82;44.48;98762.56;4359631;32;33856;-82
2023/06/16 10:54:13;;;;;;;9.50;5.68;;;;;;;24.66;46.54;98757.19;4359015;32;34142;-83
2023/06/16 10:57:07;;;;;;;9.65;5.65;;;;;;;25.12;43.49;98743.37;4346403;32;34328;-83
2023/06/16 11:00:11;;;;;;;9.50;5.32;;;;;;;24.94;44.38;98753.09;4346776;32;33994;-84
2023/06/16 11:02:52;;;;;;;9.32;5.85;;;;;;;24.81;45.29;98752.03;4344995;33;32669;-86
2023/06/16 11:05:22;;;;;;;8.65;5.10;;;;;;;24.57;45.55;98751.50;4361575;32;33850;-84
2023/06/16 11:07:57;;;;;;;8.45;5.12;;;;;;;24.74;44.92;98748.84;4361454;32;34258;-84
2023/06/16 11:10:25;;;;;;;9.10;5.47;;;;;;;25.31;44.44;98740.59;4356151;32;34417;-87
2023/06/16 11:12:52;;;;;;;9.02;5.43;;;;;;;26.01;42.22;98739.31;4370174;32;34635;-86
2023/06/16 11:15:20;;;;;;;9.48;5.32;;;;;;;25.74;41.30;98739.06;4364786;32;34199;-84
2023/06/16 11:17:47;;;;;;;8.77;5.03;;;;;;;25.70;40.20;98738.38;4350186;32;34892;-85
2023/06/16 11:20:16;;;;;;;6.90;4.62;;;;;;;26.13;39.51;98738.63;4350764;32;32384;-88
2023/06/16 11:22:44;;;;;;;7.32;4.40;;;;;;;25.93;40.33;98741.56;4364608;32;34878;-81
2023/06/16 11:25:12;;;;;;;8.25;4.75;;;;;;;26.01;40.00;98738.47;4364645;32;33952;-85
2023/06/16 11:27:40;;;;;;;7.82;4.68;;;;;;;26.06;37.37;98731.94;4363854;32;33965;-84
2023/06/16 11:30:08;;;;;;;9.30;4.82;;;;;;;25.91;40.35;98733.69;4364824;32;33529;-85
2023/06/16 11:32:37;;;;;;;9.00;4.35;;;;;;;25.63;40.49;98733.50;4364687;32;34053;-84
2023/06/16 11:35:05;;;;;;;7.75;4.78;;;;;;;26.09;39.46;98725.59;4364199;32;33948;-84
2023/06/16 11:37:52;;;;;;;7.37;4.78;;;;;;;25.91;39.65;98725.72;4364443;32;34485;-84
2023/06/16 11:40:23;;;;;;;8.82;4.87;;;;;;;26.51;38.33;98719.59;4363067;32;34370;-85
2023/06/16 11:42:58;;;;;;;6.32;4.32;;;;;;;26.19;38.26;98718.81;4350360;32;34860;-93
2023/06/16 11:45:27;;;;;;;;;;;;;;;25.97;39.32;98711.22;4348929;32;33723;-83
2023/06/16 11:47:58;;;;;;;10.60;5.43;;;;;;;25.78;38.73;98710.53;4350736;32;35298;-84
2023/06/16 11:50:26;;;;;;;9.65;6.12;;;;;;;25.92;40.03;98715.97;4350460;32;33591;-87
2023/06/16 11:52:54;;;;;;;8.05;5.62;;;;;;;25.84;40.42;98707.56;4350461;32;33211;-82
2023/06/16 11:55:23;;;;;;;9.18;5.55;;;;;;;26.28;40.13;98706.78;4350572;32;34104;-83
2023/06/16 11:57:57;;;;;;;9.50;5.18;;;;;;;26.50;39.12;98701.94;4350333;32;34212;-83
2023/06/16 12:00:26;;;;;;;8.55;5.55;;;;;;;26.41;39.77;98698.00;4348042;32;33575;-85
2023/06/16 12:02:55;;;;;;;7.95;5.20;;;;;;;26.72;41.80;98698.00;4349424;32;33963;-82